LPMALXGB

Guest
Details From LPMA - Madeira
To LXGB - LXGB Gibraltar
Flight Number -
Tags generated
Created
Modified
Stats Distance 656 nm / 1,214 km
Max Altitude 19,500 ft / 5,944 m
Waypoints 8
Social Downloads 18
Likes 0
Share VATSIM

Download

Looking for another format? Having issues loading an existing format? Contact us
Advertisement - Login to hide

Notes

Basic altitude profile: - Ascent Rate: 2500ft/min - Ascent Speed: 250kts - Cruise Altitude: 18000ft - Cruise Speed: 420kts - Descent Rate: 1500ft/min - Descent Speed: 250kts

Route

LPMA SNT UN745 NARTA UN747 VFA UZ5 PIREN LXGB

ID Type Via Altitude Latitude Longitude Leg Dist Tot Dist Heading (true) Name
O LPMA APT - 0 ft / 0 m 32.69770˚ -16.77445˚ - 0 nm - Madeira
SNT VOR - 11,300 ft / 3,444 m 33.09028˚ -16.35056˚ 31 nm 31 nm 42° / 42° PORTO SANTO VOR-DME
RULET FIX UN745 (AWY-HI) 19,500 ft / 5,944 m 34.25167˚ -14.91556˚ 100 nm 131 nm 45° / 46° -
GALPA FIX UN745 (AWY-HI) 19,500 ft / 5,944 m 34.39806˚ -14.73028˚ 12 nm 144 nm 46° / 46° -
NARTA FIX UN745 (AWY-HI) 19,500 ft / 5,944 m 36.05639˚ -12.55806˚ 145 nm 290 nm 46° / 48° -
VFA VOR UN747 (AWY-HI) 19,500 ft / 5,944 m 37.01352˚ -7.97501˚ 228 nm 518 nm 74° / 77° FARO VOR-DME
PIREN FIX UZ5 (AWY-HI) 19,500 ft / 5,944 m 36.83333˚ -7.38333˚ 30 nm 549 nm 111° / 111° -
O LXGB APT - 0 ft / 0 m 36.15121˚ -5.34966˚ 106 nm 655 nm 112° / 113° LXGB Gibraltar

Altitude Profile

Advertisement - Login to hide

Weather


0- 5 10 15 20 25 30 35+ Temperature / ° C

Clouds and Precipitation
Forecast for 2017-12-11 18:00 UTC. Updated 19 minutes ago

Ground ~20,000 ft ~40,000 ft Winds

LPMA

Details ICAO LPMA (FNC)
Name Madeira
Region Portugal
Timezone Atlantic/Madeira (UTC+0.0)
Stats Elevation 192 ft / 59 m (AMSL)
Location 32.697704° -16.774449°
Runways 1
Magnetic Variation 4.983° W

METAR

LPMA 111730Z 01012G22KT 310V060 9999 SCT014 16/10 Q1016

Decode

TAF

TAF LPMA 111100Z 1112/1212 35020KT 9999 SCT016 TEMPO 1112/1124 35025G37KT BECMG 1121/1124 02015KT TEMPO 1200/1212 02023G33KT

Decode

Departure Runways

ID Width Length Bearing (true) Bearing (mag) Surface Threshold Offset Overrun Length
05 141 ft / 43 m 8,683 ft / 2,647 m 42.98° 47.96° Asphalt 472 ft / 144 m 0 ft / 0 m
23 141 ft / 43 m 8,683 ft / 2,647 m 222.99° 227.97° Asphalt 466 ft / 142 m 0 ft / 0 m

LXGB

Details ICAO LXGB (GIB)
Name Gibraltar
Region Gibralter
Timezone Europe/Gibraltar (UTC+1.0)
Stats Elevation 15 ft / 5 m (AMSL)
Location 36.151209° -5.349664°
Runways 1
Magnetic Variation 1.124° W

METAR

LXGB 111650Z 26014KT 9999 FEW025 14/07 Q1006 NOSIG

Decode

TAF

Not found

Destination Runways

ID Width Length Bearing (true) Bearing (mag) Surface Threshold Offset Overrun Length
27 151 ft / 46 m 5,992 ft / 1,826 m 267.56° 268.68° Asphalt 367 ft / 112 m 89 ft / 27 m
9 151 ft / 46 m 5,992 ft / 1,826 m 87.54° 88.66° Asphalt 299 ft / 91 m 52 ft / 16 m

Popular Alternatives